createdAt,value
2023-02-06T00:01:31.756Z,9.60
2023-02-06T00:04:01.655Z,11.03
2023-02-06T00:06:30.112Z,18.80
2023-02-06T00:08:58.632Z,23.03
2023-02-06T00:11:27.178Z,11.03
2023-02-06T00:13:55.766Z,8.30
2023-02-06T00:16:26.136Z,9.70
2023-02-06T00:18:56.076Z,9.37
2023-02-06T00:24:20.130Z,9.77
2023-02-06T00:26:48.514Z,8.70
2023-02-06T00:29:17.075Z,11.40
2023-02-06T00:31:45.573Z,8.47
2023-02-06T00:34:14.593Z,7.83
2023-02-06T00:36:44.441Z,6.63
2023-02-06T00:39:13.016Z,9.03
2023-02-06T00:41:42.340Z,13.47
2023-02-06T00:44:10.904Z,7.97
2023-02-06T00:46:39.325Z,8.47
2023-02-06T00:49:07.866Z,7.83
2023-02-06T00:51:38.909Z,8.20
2023-02-06T00:54:09.267Z,11.33
2023-02-06T00:56:37.669Z,8.43
2023-02-06T00:59:06.258Z,9.47
2023-02-06T01:01:35.163Z,16.53
2023-02-06T01:04:03.729Z,8.63
2023-02-06T01:06:32.278Z,12.97
2023-02-06T01:09:00.817Z,6.63
2023-02-06T01:11:31.403Z,6.70
2023-02-06T01:14:02.855Z,10.60
2023-02-06T01:16:31.517Z,12.60
2023-02-06T01:19:00.072Z,9.47
2023-02-06T01:21:28.685Z,7.90
2023-02-06T01:23:59.673Z,7.40
2023-02-06T01:26:30.134Z,8.50
2023-02-06T01:28:58.680Z,7.30
2023-02-06T01:31:30.006Z,10.60
2023-02-06T01:33:59.859Z,8.03
2023-02-06T01:36:28.847Z,11.40
2023-02-06T01:38:58.376Z,14.33
2023-02-06T01:41:26.898Z,11.03
2023-02-06T01:44:16.618Z,9.20
2023-02-06T01:46:46.911Z,7.73
2023-02-06T01:49:20.795Z,15.23
2023-02-06T01:51:51.123Z,9.13
2023-02-06T01:54:19.853Z,8.40
2023-02-06T01:56:53.256Z,9.50
2023-02-06T01:59:24.124Z,8.53
2023-02-06T02:01:52.707Z,13.17
2023-02-06T02:04:23.816Z,11.80
2023-02-06T02:06:59.828Z,7.67
2023-02-06T02:09:29.799Z,7.80
2023-02-06T02:11:58.371Z,7.80
2023-02-06T02:14:28.371Z,8.87
2023-02-06T02:17:11.455Z,8.33
2023-02-06T02:20:12.173Z,7.47
2023-02-06T02:23:06.168Z,9.03
2023-02-06T02:26:07.826Z,6.30
2023-02-06T02:29:10.686Z,10.80
2023-02-06T02:32:20.186Z,10.20
2023-02-06T02:35:19.048Z,11.20
2023-02-06T02:38:04.473Z,11.70
2023-02-06T02:40:44.733Z,10.73
2023-02-06T02:43:22.541Z,7.23
2023-02-06T02:45:56.668Z,9.10
2023-02-06T02:48:28.350Z,9.70
2023-02-06T02:50:59.806Z,7.00
2023-02-06T02:53:28.834Z,9.63
2023-02-06T02:55:57.563Z,14.37
2023-02-06T02:58:31.411Z,9.03
2023-02-06T03:01:04.231Z,8.20
2023-02-06T03:03:40.386Z,7.43
2023-02-06T03:06:27.160Z,9.13
2023-02-06T03:09:04.219Z,8.93
2023-02-06T03:11:33.819Z,8.63
2023-02-06T03:14:07.149Z,6.87
2023-02-06T03:16:39.923Z,10.17
2023-02-06T03:19:12.823Z,9.17
2023-02-06T03:21:44.037Z,10.30
2023-02-06T03:24:16.842Z,11.10
2023-02-06T03:26:46.693Z,9.03
2023-02-06T03:29:17.754Z,8.00
2023-02-06T03:31:50.812Z,11.43
2023-02-06T03:34:24.109Z,8.30
2023-02-06T03:36:54.647Z,13.63
2023-02-06T03:39:24.228Z,13.17
2023-02-06T03:41:54.658Z,8.43
2023-02-06T03:44:25.996Z,9.40
2023-02-06T03:46:57.223Z,13.13
2023-02-06T03:49:28.977Z,12.03
2023-02-06T03:52:03.001Z,9.70
2023-02-06T03:54:33.594Z,11.40
2023-02-06T03:57:03.968Z,14.00
2023-02-06T03:59:34.065Z,8.40
2023-02-06T04:02:05.137Z,9.87
2023-02-06T04:04:38.983Z,9.30
2023-02-06T04:07:14.661Z,9.13
2023-02-06T04:09:43.329Z,7.80
2023-02-06T04:12:12.172Z,9.40
2023-02-06T04:14:40.602Z,7.63
2023-02-06T04:17:09.519Z,12.43
2023-02-06T04:19:37.957Z,8.73
2023-02-06T04:22:06.852Z,10.87
2023-02-06T04:24:36.863Z,12.47
2023-02-06T04:27:05.378Z,13.40
2023-02-06T04:29:33.916Z,12.53
2023-02-06T04:32:03.377Z,15.43
2023-02-06T04:34:32.634Z,9.13
2023-02-06T04:37:01.452Z,12.47
2023-02-06T04:39:30.734Z,14.43
2023-02-06T04:42:00.890Z,11.70
2023-02-06T04:44:29.922Z,10.77
2023-02-06T04:46:58.379Z,11.83
2023-02-06T04:49:26.975Z,12.00
2023-02-06T04:51:55.413Z,10.33
2023-02-06T04:54:23.960Z,9.67
2023-02-06T04:56:52.458Z,13.63
2023-02-06T04:59:22.294Z,12.63
2023-02-06T05:01:50.748Z,12.90
2023-02-06T05:04:19.293Z,12.23
2023-02-06T05:06:47.742Z,10.67
2023-02-06T05:09:16.698Z,9.90
2023-02-06T05:11:45.154Z,11.73
2023-02-06T05:14:13.766Z,9.13
2023-02-06T05:16:43.541Z,10.03
2023-02-06T05:19:12.381Z,15.87
2023-02-06T05:21:40.765Z,11.87
2023-02-06T05:24:09.308Z,8.87
2023-02-06T05:26:37.745Z,11.80
2023-02-06T05:29:06.265Z,13.80
2023-02-06T05:31:34.869Z,10.33
2023-02-06T05:34:04.886Z,14.80
2023-02-06T05:36:33.335Z,13.50
2023-02-06T05:39:01.796Z,11.23
2023-02-06T05:41:30.227Z,12.70
2023-02-06T05:43:58.817Z,12.20
2023-02-06T05:46:27.380Z,12.30
2023-02-06T05:48:55.928Z,13.10
2023-02-06T05:51:25.718Z,12.83
2023-02-06T05:53:54.284Z,10.43
2023-02-06T05:56:22.715Z,16.40
2023-02-06T05:58:51.279Z,17.93
2023-02-06T06:01:19.727Z,13.97
2023-02-06T06:03:48.237Z,11.30
2023-02-06T06:06:16.682Z,11.20
2023-02-06T06:08:46.582Z,12.90
2023-02-06T06:11:15.035Z,12.03
2023-02-06T06:13:43.575Z,13.13
2023-02-06T06:16:12.016Z,13.77
2023-02-06T06:18:40.572Z,12.30
2023-02-06T06:21:09.223Z,12.60
2023-02-06T06:23:37.695Z,13.77
2023-02-06T06:26:07.705Z,19.63
2023-02-06T06:28:38.667Z,10.50
2023-02-06T06:31:08.887Z,16.20
2023-02-06T06:33:37.374Z,11.07
2023-02-06T06:36:06.528Z,11.47
2023-02-06T06:38:35.024Z,15.07
2023-02-06T06:41:03.717Z,13.07
2023-02-06T06:43:34.377Z,13.67
2023-02-06T06:46:05.108Z,11.23
2023-02-06T06:48:37.163Z,12.50
2023-02-06T06:51:06.164Z,9.93
2023-02-06T06:53:39.846Z,10.47
2023-02-06T06:56:11.546Z,10.90
2023-02-06T06:58:41.776Z,11.57
2023-02-06T07:01:10.626Z,16.60
2023-02-06T07:03:39.379Z,16.40
2023-02-06T07:06:08.292Z,14.33
2023-02-06T07:08:41.840Z,11.90
2023-02-06T07:11:10.473Z,12.53
2023-02-06T07:13:40.598Z,13.73
2023-02-06T07:16:09.768Z,12.93
2023-02-06T07:18:39.940Z,14.00
2023-02-06T07:21:09.705Z,8.20
2023-02-06T07:23:38.652Z,7.20
2023-02-06T07:26:07.398Z,7.90
2023-02-06T07:28:36.226Z,10.43
2023-02-06T07:31:08.244Z,14.67
2023-02-06T07:33:37.341Z,18.20
2023-02-06T07:36:06.050Z,14.80
2023-02-06T07:38:34.530Z,13.80
2023-02-06T07:41:03.582Z,29.30
2023-02-06T07:43:32.304Z,27.10
2023-02-06T07:46:01.998Z,14.90
2023-02-06T07:48:32.446Z,14.53
2023-02-06T07:51:06.538Z,12.40
2023-02-06T07:53:35.477Z,10.17
2023-02-06T07:56:10.011Z,7.10
2023-02-06T07:58:38.473Z,8.20
2023-02-06T08:01:07.858Z,6.03
2023-02-06T08:03:38.118Z,5.93
2023-02-06T08:06:10.801Z,6.93
2023-02-06T08:08:39.858Z,6.90
2023-02-06T08:11:09.846Z,9.10
2023-02-06T08:13:38.641Z,9.03
2023-02-06T08:16:08.631Z,7.50
2023-02-06T08:18:38.709Z,10.00
2023-02-06T08:21:10.842Z,6.65
2023-02-06T08:23:39.695Z,8.70
2023-02-06T08:26:10.191Z,6.10
2023-02-06T08:28:42.171Z,7.30
2023-02-06T08:31:13.099Z,6.33
2023-02-06T08:33:43.357Z,8.40
2023-02-06T08:36:13.230Z,10.20
2023-02-06T08:38:41.953Z,7.33
2023-02-06T08:41:18.654Z,11.87
2023-02-06T08:43:47.781Z,10.47
2023-02-06T08:46:17.653Z,5.73
2023-02-06T08:48:47.782Z,7.17
2023-02-06T08:51:16.556Z,6.33
2023-02-06T08:53:45.156Z,9.53
2023-02-06T08:56:14.090Z,9.83
2023-02-06T08:58:42.539Z,12.70
2023-02-06T09:01:14.712Z,11.33
2023-02-06T09:03:43.687Z,9.00
2023-02-06T09:06:15.102Z,8.27
2023-02-06T09:08:44.674Z,7.30
2023-02-06T09:11:15.700Z,7.13
2023-02-06T09:13:45.233Z,5.13
2023-02-06T09:16:14.226Z,17.80
2023-02-06T09:18:43.440Z,10.40
2023-02-06T09:21:15.776Z,10.63
2023-02-06T09:23:45.718Z,5.83
2023-02-06T09:26:15.494Z,15.10
2023-02-06T09:28:44.238Z,6.50
2023-02-06T09:31:13.183Z,10.80
2023-02-06T09:33:41.979Z,8.23
2023-02-06T09:36:13.115Z,6.90
2023-02-06T09:38:44.523Z,10.90
2023-02-06T09:41:19.103Z,10.43
2023-02-06T09:43:52.657Z,6.87
2023-02-06T09:46:23.798Z,7.60
2023-02-06T09:48:52.658Z,8.53
2023-02-06T09:51:26.298Z,8.13
2023-02-06T09:54:06.507Z,7.67
2023-02-06T09:56:41.269Z,9.10
2023-02-06T09:59:17.589Z,7.90
2023-02-06T10:01:54.360Z,10.27
2023-02-06T10:04:39.266Z,11.20
2023-02-06T10:07:20.934Z,10.13
2023-02-06T10:09:55.392Z,8.27
2023-02-06T10:12:28.523Z,10.00
2023-02-06T10:15:02.560Z,5.43
2023-02-06T10:17:34.998Z,8.90
2023-02-06T10:20:07.623Z,9.30
2023-02-06T10:22:44.168Z,8.13
2023-02-06T10:25:23.490Z,10.77
2023-02-06T10:27:57.780Z,10.73
2023-02-06T10:30:40.711Z,10.60
2023-02-06T10:33:25.293Z,10.20
2023-02-06T10:36:02.336Z,6.70
2023-02-06T10:38:50.258Z,8.00
2023-02-06T10:41:29.375Z,13.23
2023-02-06T10:44:02.709Z,6.90
2023-02-06T10:46:43.108Z,6.90
2023-02-06T10:49:19.760Z,8.23
2023-02-06T10:51:52.939Z,5.50
2023-02-06T10:54:26.186Z,6.70
2023-02-06T10:56:58.133Z,10.17
2023-02-06T10:59:30.177Z,10.10
2023-02-06T11:02:19.767Z,9.83
2023-02-06T11:04:55.063Z,16.60
2023-02-06T11:07:29.214Z,9.17
2023-02-06T11:09:57.951Z,12.20
2023-02-06T11:12:33.051Z,13.73
2023-02-06T11:15:07.746Z,6.93
2023-02-06T11:17:37.035Z,9.67
2023-02-06T11:20:21.973Z,7.53
2023-02-06T11:22:53.267Z,10.33
2023-02-06T11:25:28.388Z,9.23
2023-02-06T11:27:59.683Z,8.80
2023-02-06T11:30:33.603Z,6.87
2023-02-06T11:33:06.311Z,8.00
2023-02-06T11:35:39.354Z,8.83
2023-02-06T11:38:16.464Z,10.03
2023-02-06T11:40:54.551Z,10.80
2023-02-06T11:43:26.435Z,8.73
2023-02-06T11:46:09.489Z,5.20
2023-02-06T11:48:40.136Z,7.20
2023-02-06T11:51:10.117Z,9.00
2023-02-06T11:53:39.548Z,8.60
2023-02-06T11:56:17.847Z,7.23
2023-02-06T11:58:48.611Z,10.50
2023-02-06T12:01:22.190Z,12.63
2023-02-06T12:03:57.468Z,7.90
2023-02-06T12:06:31.524Z,6.63
2023-02-06T12:09:02.328Z,9.10
2023-02-06T12:11:36.353Z,8.70
2023-02-06T12:14:10.881Z,12.37
2023-02-06T12:16:41.638Z,11.70
2023-02-06T12:19:16.877Z,6.57
2023-02-06T12:21:49.684Z,8.17
2023-02-06T12:24:32.440Z,12.33
2023-02-06T12:27:05.384Z,7.60
2023-02-06T12:29:41.861Z,9.00
2023-02-06T12:32:16.236Z,13.33
2023-02-06T12:34:53.820Z,10.40
2023-02-06T12:37:31.591Z,9.30
2023-02-06T12:40:00.900Z,11.40
2023-02-06T12:42:37.372Z,12.73
2023-02-06T12:45:18.754Z,11.67
2023-02-06T12:47:54.801Z,8.93
2023-02-06T12:50:26.338Z,9.60
2023-02-06T12:53:00.455Z,8.00
2023-02-06T12:55:32.340Z,11.10
2023-02-06T12:58:01.201Z,16.53
2023-02-06T13:00:56.325Z,11.50
2023-02-06T13:03:32.328Z,7.10
2023-02-06T13:06:12.565Z,10.30
2023-02-06T13:08:46.196Z,8.77
2023-02-06T13:11:25.418Z,20.90
2023-02-06T13:14:02.759Z,7.53
2023-02-06T13:16:58.304Z,9.13
2023-02-06T13:19:50.674Z,13.40
2023-02-06T13:22:36.480Z,14.67
2023-02-06T13:25:48.181Z,16.40
2023-02-06T13:28:47.885Z,9.87
2023-02-06T13:31:35.525Z,10.30
2023-02-06T13:34:17.453Z,7.57
2023-02-06T13:36:54.128Z,8.97
2023-02-06T13:39:29.432Z,13.07
2023-02-06T13:42:03.172Z,11.53
2023-02-06T13:44:34.970Z,10.50
2023-02-06T13:47:31.733Z,11.77
2023-02-06T13:50:23.553Z,13.30
2023-02-06T13:53:08.039Z,10.53
2023-02-06T13:55:47.400Z,13.53
2023-02-06T13:58:39.889Z,11.03
2023-02-06T14:01:15.681Z,9.77
2023-02-06T14:03:47.144Z,6.87
2023-02-06T14:06:48.032Z,6.00
2023-02-06T14:09:47.002Z,13.70
2023-02-06T14:12:35.180Z,7.73
2023-02-06T14:15:16.732Z,8.30
2023-02-06T14:18:01.603Z,8.63
2023-02-06T14:20:38.661Z,16.03
2023-02-06T14:23:17.473Z,8.30
2023-02-06T14:25:59.687Z,7.37
2023-02-06T14:28:37.533Z,6.63
2023-02-06T14:31:16.526Z,7.87
2023-02-06T14:33:56.817Z,14.83
2023-02-06T14:36:48.988Z,5.73
2023-02-06T14:39:43.142Z,10.77
2023-02-06T14:42:17.721Z,9.10
2023-02-06T14:44:51.366Z,6.20
2023-02-06T14:47:24.252Z,11.07
2023-02-06T14:49:53.872Z,7.40
2023-02-06T14:52:25.256Z,10.83
2023-02-06T14:54:55.330Z,19.63
2023-02-06T14:57:26.832Z,9.40
2023-02-06T14:59:58.449Z,34.73
2023-02-06T15:02:32.278Z,7.20
2023-02-06T15:05:02.134Z,8.67
2023-02-06T15:07:32.702Z,7.27
2023-02-06T15:10:09.600Z,7.30
2023-02-06T15:12:39.446Z,5.83
2023-02-06T15:15:19.406Z,8.30
2023-02-06T15:17:57.703Z,11.73
2023-02-06T15:20:31.122Z,7.60
2023-02-06T15:23:17.026Z,7.63
2023-02-06T15:26:04.110Z,6.50
2023-02-06T15:28:34.300Z,8.83
2023-02-06T15:31:03.257Z,9.07
2023-02-06T15:33:34.073Z,7.87
2023-02-06T15:36:04.119Z,8.53
2023-02-06T15:38:34.666Z,8.00
2023-02-06T15:41:08.401Z,11.37
2023-02-06T15:43:37.507Z,12.80
2023-02-06T15:46:07.171Z,8.10
2023-02-06T15:48:39.268Z,11.10
2023-02-06T15:51:20.396Z,9.60
2023-02-06T15:53:50.676Z,12.13
2023-02-06T15:56:26.036Z,12.60
2023-02-06T15:59:01.192Z,6.70
2023-02-06T16:01:34.954Z,8.30
2023-02-06T16:04:09.341Z,7.43
2023-02-06T16:06:38.002Z,10.83
2023-02-06T16:09:08.570Z,9.13
2023-02-06T16:11:51.244Z,7.67
2023-02-06T16:14:23.508Z,9.53
2023-02-06T16:17:00.686Z,9.50
2023-02-06T16:19:39.907Z,14.13
2023-02-06T16:22:17.497Z,11.80
2023-02-06T16:24:46.765Z,16.70
2023-02-06T16:27:22.401Z,8.27
2023-02-06T16:29:53.135Z,9.50
2023-02-06T16:32:25.634Z,8.23
2023-02-06T16:34:54.556Z,7.40
2023-02-06T16:37:27.326Z,9.23
2023-02-06T16:39:56.276Z,11.70
2023-02-06T16:42:28.234Z,14.57
2023-02-06T16:45:01.584Z,9.80
2023-02-06T16:47:30.054Z,11.60
2023-02-06T16:49:58.566Z,9.30
2023-02-06T16:52:30.346Z,12.50
2023-02-06T16:55:00.181Z,10.83
2023-02-06T16:57:33.228Z,9.73
2023-02-06T17:00:02.116Z,8.83
2023-02-06T17:02:30.789Z,8.97
2023-02-06T17:04:59.343Z,7.17
2023-02-06T17:07:32.438Z,10.60
2023-02-06T17:10:01.948Z,11.80
2023-02-06T17:12:32.131Z,10.00
2023-02-06T17:15:00.959Z,13.33
2023-02-06T17:17:29.498Z,16.40
2023-02-06T17:19:58.416Z,14.03
2023-02-06T17:22:27.064Z,15.70
2023-02-06T17:24:55.753Z,13.47
2023-02-06T17:27:24.703Z,11.97
2023-02-06T17:29:54.874Z,12.60
2023-02-06T17:32:23.640Z,17.50
2023-02-06T17:34:54.360Z,10.47
2023-02-06T17:37:23.134Z,11.80
2023-02-06T17:39:52.407Z,16.50
2023-02-06T17:42:24.316Z,9.10
2023-02-06T17:44:54.533Z,14.20
2023-02-06T17:47:23.070Z,16.93
2023-02-06T17:49:51.614Z,16.97
2023-02-06T17:52:20.197Z,18.17
2023-02-06T17:54:48.686Z,10.83
2023-02-06T17:57:17.219Z,11.30
2023-02-06T17:59:45.850Z,16.70
2023-02-06T18:02:15.905Z,12.73
2023-02-06T18:04:44.360Z,10.67
2023-02-06T18:07:12.910Z,12.50
2023-02-06T18:09:42.261Z,12.37
2023-02-06T18:12:11.274Z,11.37
2023-02-06T18:14:40.744Z,13.70
2023-02-06T18:17:09.959Z,9.97
2023-02-06T18:19:42.520Z,12.70
2023-02-06T18:22:12.514Z,12.23
2023-02-06T18:24:41.634Z,11.40
2023-02-06T18:27:10.733Z,14.30
2023-02-06T18:29:49.365Z,11.47
2023-02-06T18:32:19.886Z,14.40
2023-02-06T18:34:49.963Z,13.80
2023-02-06T18:37:18.610Z,13.03
2023-02-06T18:39:47.136Z,18.03
2023-02-06T18:42:33.026Z,15.57
2023-02-06T18:45:04.019Z,11.73
2023-02-06T18:47:32.910Z,17.73
2023-02-06T18:50:02.800Z,22.40
2023-02-06T18:52:31.368Z,14.70
2023-02-06T18:55:00.012Z,17.33
2023-02-06T18:57:28.603Z,17.30
2023-02-06T18:59:57.162Z,9.93
2023-02-06T19:02:25.636Z,14.80
2023-02-06T19:04:54.497Z,12.60
2023-02-06T19:07:24.295Z,10.33
2023-02-06T19:09:57.654Z,12.90
2023-02-06T19:12:28.179Z,13.20
2023-02-06T19:14:57.338Z,14.13
2023-02-06T19:17:27.157Z,10.03
2023-02-06T19:19:56.131Z,10.13
2023-02-06T19:22:25.937Z,11.90
2023-02-06T19:24:54.915Z,11.93
2023-02-06T19:27:23.538Z,11.47
2023-02-06T19:29:52.058Z,8.37
2023-02-06T19:32:20.550Z,15.73
2023-02-06T19:34:49.148Z,13.93
2023-02-06T19:37:17.728Z,19.50
2023-02-06T19:39:47.782Z,17.83
2023-02-06T19:42:17.823Z,15.17
2023-02-06T19:44:46.486Z,16.03
2023-02-06T19:47:15.057Z,18.50
2023-02-06T19:49:44.069Z,12.80
2023-02-06T19:52:14.536Z,14.80
2023-02-06T19:54:43.178Z,17.73
2023-02-06T19:57:13.665Z,15.07
2023-02-06T19:59:42.599Z,11.63
2023-02-06T20:02:14.475Z,15.30
2023-02-06T20:04:43.202Z,21.20
2023-02-06T20:07:11.826Z,8.60
2023-02-06T20:09:42.047Z,12.13
2023-02-06T20:12:13.146Z,12.40
2023-02-06T20:14:42.257Z,12.67
2023-02-06T20:17:10.954Z,16.00
2023-02-06T20:19:39.496Z,14.10
2023-02-06T20:22:07.958Z,14.50
2023-02-06T20:24:37.431Z,21.83
2023-02-06T20:27:08.553Z,15.90
2023-02-06T20:29:42.510Z,16.13
2023-02-06T20:32:12.145Z,23.80
2023-02-06T20:34:40.751Z,18.80
2023-02-06T20:37:09.323Z,13.50
2023-02-06T20:39:38.378Z,12.00
2023-02-06T20:42:06.938Z,15.80
2023-02-06T20:44:35.575Z,18.73
2023-02-06T20:47:05.421Z,10.70
2023-02-06T20:49:34.189Z,14.87
2023-02-06T20:52:03.393Z,15.67
2023-02-06T20:54:32.256Z,15.30
2023-02-06T20:57:01.381Z,19.90
2023-02-06T20:59:30.534Z,18.73
2023-02-06T21:01:59.477Z,13.63
2023-02-06T21:04:32.356Z,18.27
2023-02-06T21:07:01.216Z,12.80
2023-02-06T21:09:30.347Z,15.40
2023-02-06T21:11:59.102Z,19.57
2023-02-06T21:14:29.947Z,16.00
2023-02-06T21:16:58.758Z,14.27
2023-02-06T21:19:29.234Z,16.57
2023-02-06T21:21:58.020Z,15.70
2023-02-06T21:24:26.560Z,13.47
2023-02-06T21:26:55.389Z,14.20
2023-02-06T21:29:24.416Z,15.00
2023-02-06T21:32:07.191Z,25.77
2023-02-06T21:34:43.029Z,24.07
2023-02-06T21:37:11.688Z,21.57
2023-02-06T21:39:41.219Z,30.67
2023-02-06T21:42:09.990Z,18.00
2023-02-06T21:44:38.787Z,29.97
2023-02-06T21:47:09.857Z,25.20
2023-02-06T21:49:38.868Z,27.13
2023-02-06T21:52:08.677Z,22.07
2023-02-06T21:54:37.270Z,22.27
2023-02-06T21:57:06.419Z,27.10
2023-02-06T21:59:36.423Z,24.67
2023-02-06T22:02:05.094Z,33.03
2023-02-06T22:04:33.660Z,22.23
2023-02-06T22:07:02.223Z,17.93
2023-02-06T22:09:32.210Z,18.40
2023-02-06T22:12:01.672Z,22.30
2023-02-06T22:14:30.322Z,22.63
2023-02-06T22:16:58.759Z,21.43
2023-02-06T22:19:27.415Z,23.90
2023-02-06T22:21:55.949Z,21.43
2023-02-06T22:24:24.539Z,25.87
2023-02-06T22:26:54.458Z,37.47
2023-02-06T22:29:23.012Z,29.63
2023-02-06T22:31:51.582Z,33.50
2023-02-06T22:34:21.582Z,32.40
2023-02-06T22:36:51.222Z,27.00
2023-02-06T22:39:38.025Z,39.17
2023-02-06T22:42:07.782Z,117.40
2023-02-06T22:44:36.303Z,69.93
2023-02-06T22:47:04.562Z,39.80
2023-02-06T22:49:32.894Z,85.03
2023-02-06T22:52:01.218Z,40.20
2023-02-06T22:54:29.568Z,47.73
2023-02-06T22:56:57.889Z,24.53
2023-02-06T22:59:27.943Z,22.40
2023-02-06T23:01:59.266Z,35.73
2023-02-06T23:04:29.639Z,50.30
2023-02-06T23:06:58.581Z,28.27
2023-02-06T23:09:29.545Z,23.40
2023-02-06T23:11:59.238Z,21.63
2023-02-06T23:14:30.091Z,22.23
2023-02-06T23:16:58.879Z,19.50
2023-02-06T23:19:27.337Z,20.93
2023-02-06T23:21:55.781Z,18.70
2023-02-06T23:24:24.142Z,18.77
2023-02-06T23:26:54.438Z,18.83
2023-02-06T23:29:24.334Z,15.43
2023-02-06T23:31:54.178Z,19.53
2023-02-06T23:34:24.239Z,23.27
2023-02-06T23:36:53.018Z,19.77
2023-02-06T23:39:21.441Z,22.80
2023-02-06T23:41:49.910Z,20.70
2023-02-06T23:44:18.291Z,19.40
2023-02-06T23:46:47.776Z,20.80
2023-02-06T23:49:17.601Z,22.70
2023-02-06T23:51:46.230Z,23.50
2023-02-06T23:54:14.768Z,30.37
2023-02-06T23:56:43.256Z,21.23
2023-02-06T23:59:11.890Z,25.73
